createdAt,value
2018-07-20T00:00:09.905Z,89.90
2018-07-20T00:02:43.676Z,89.80
2018-07-20T00:05:17.534Z,90.20
2018-07-20T00:07:52.083Z,91.30
2018-07-20T00:10:26.557Z,91.90
2018-07-20T00:13:01.027Z,92.00
2018-07-20T00:15:34.823Z,92.30
2018-07-20T00:18:09.379Z,92.80
2018-07-20T00:20:43.265Z,92.80
2018-07-20T00:23:17.765Z,93.40
2018-07-20T00:25:51.569Z,93.40
2018-07-20T00:28:25.299Z,93.60
2018-07-20T00:30:59.167Z,94.60
2018-07-20T00:33:33.025Z,95.10
2018-07-20T00:36:07.008Z,95.50
2018-07-20T00:38:40.731Z,95.90
2018-07-20T00:41:14.593Z,95.70
2018-07-20T00:43:48.395Z,95.70
2018-07-20T00:46:22.138Z,96.00
2018-07-20T00:48:56.005Z,96.40
2018-07-20T00:51:30.597Z,97.40
2018-07-20T00:54:04.455Z,97.10
2018-07-20T00:56:39.031Z,97.60
2018-07-20T00:59:12.884Z,97.60
2018-07-20T01:01:46.680Z,97.60
2018-07-20T01:04:20.478Z,97.80
2018-07-20T01:06:54.215Z,97.60
2018-07-20T01:09:27.857Z,97.70
2018-07-20T01:12:02.543Z,98.50
2018-07-20T01:14:36.403Z,98.40
2018-07-20T01:17:10.350Z,98.60
2018-07-20T01:19:44.161Z,98.70
2018-07-20T01:22:18.682Z,99.60
2018-07-20T01:24:52.516Z,99.60
2018-07-20T01:27:26.315Z,99.70
2018-07-20T01:30:00.156Z,99.90
2018-07-20T01:32:33.931Z,99.90
2018-07-20T01:35:07.684Z,99.90
2018-07-20T01:37:41.420Z,99.90
2018-07-20T01:40:15.340Z,99.90
2018-07-20T01:42:49.904Z,99.90
2018-07-20T01:45:24.563Z,99.90
2018-07-20T01:47:58.266Z,99.90
2018-07-20T01:50:32.881Z,99.90
2018-07-20T01:53:07.491Z,99.90
2018-07-20T01:55:41.265Z,99.90
2018-07-20T01:58:15.862Z,99.90
2018-07-20T02:00:49.688Z,99.90
2018-07-20T02:03:23.483Z,99.90
2018-07-20T02:05:57.192Z,99.90
2018-07-20T02:08:31.040Z,99.90
2018-07-20T02:11:04.797Z,99.90
2018-07-20T02:13:38.571Z,99.90
2018-07-20T02:16:12.240Z,99.90
2018-07-20T02:18:46.092Z,99.90
2018-07-20T02:21:20.712Z,99.90
2018-07-20T02:23:55.300Z,99.90
2018-07-20T02:26:29.173Z,99.90
2018-07-20T02:29:02.844Z,99.90
2018-07-20T02:31:37.470Z,99.90
2018-07-20T02:34:11.291Z,99.90
2018-07-20T02:36:45.164Z,99.90
2018-07-20T02:39:18.987Z,99.90
2018-07-20T02:41:52.835Z,99.90
2018-07-20T02:44:26.545Z,99.90
2018-07-20T02:47:00.316Z,99.90
2018-07-20T02:49:34.788Z,99.90
2018-07-20T02:52:08.618Z,99.90
2018-07-20T02:54:43.115Z,99.90
2018-07-20T02:57:16.975Z,99.90
2018-07-20T02:59:51.448Z,99.90
2018-07-20T03:02:26.012Z,99.90
2018-07-20T03:04:59.789Z,99.90
2018-07-20T03:07:33.594Z,99.90
2018-07-20T03:10:07.409Z,99.90
2018-07-20T03:12:41.120Z,99.90
2018-07-20T03:15:15.050Z,99.90
2018-07-20T03:17:48.841Z,99.90
2018-07-20T03:20:22.479Z,99.90
2018-07-20T03:22:56.298Z,99.90
2018-07-20T03:25:29.963Z,99.90
2018-07-20T03:28:03.773Z,99.90
2018-07-20T03:30:37.557Z,99.90
2018-07-20T03:33:11.344Z,99.90
2018-07-20T03:35:45.071Z,99.90
2018-07-20T03:38:18.957Z,99.90
2018-07-20T03:40:53.621Z,99.90
2018-07-20T03:43:27.339Z,99.90
2018-07-20T03:46:01.031Z,99.90
2018-07-20T03:48:34.768Z,99.90
2018-07-20T03:51:09.356Z,99.90
2018-07-20T03:53:43.063Z,99.90
2018-07-20T03:56:16.887Z,99.90
2018-07-20T03:58:50.634Z,99.90
2018-07-20T04:01:25.544Z,99.90
2018-07-20T04:03:59.397Z,99.90
2018-07-20T04:06:33.279Z,99.90
2018-07-20T04:09:06.993Z,99.90
2018-07-20T04:11:40.873Z,99.90
2018-07-20T04:14:14.507Z,99.90
2018-07-20T04:16:48.151Z,99.90
2018-07-20T04:19:22.599Z,99.90
2018-07-20T04:21:56.414Z,99.90
2018-07-20T04:24:30.103Z,99.90
2018-07-20T04:27:04.673Z,99.90
2018-07-20T04:29:40.058Z,99.90
2018-07-20T04:32:13.708Z,99.90
2018-07-20T04:34:48.252Z,99.90
2018-07-20T04:37:22.841Z,99.90
2018-07-20T04:39:56.680Z,99.90
2018-07-20T04:42:30.289Z,99.90
2018-07-20T04:45:04.144Z,99.90
2018-07-20T04:47:38.774Z,99.90
2018-07-20T04:50:12.569Z,99.90
2018-07-20T04:52:47.139Z,99.90
2018-07-20T04:55:21.656Z,99.90
2018-07-20T04:57:56.719Z,99.90
2018-07-20T05:00:30.585Z,99.90
2018-07-20T05:03:04.439Z,99.90
2018-07-20T05:05:41.432Z,99.90
2018-07-20T05:08:15.239Z,99.90
2018-07-20T05:10:49.700Z,99.90
2018-07-20T05:13:23.508Z,99.90
2018-07-20T05:15:57.149Z,99.90
2018-07-20T05:18:30.939Z,99.90
2018-07-20T05:21:05.569Z,99.90
2018-07-20T05:23:39.254Z,99.90
2018-07-20T05:26:12.942Z,99.90
2018-07-20T05:28:46.720Z,99.90
2018-07-20T05:31:20.466Z,99.90
2018-07-20T05:33:54.980Z,99.90
2018-07-20T05:36:29.524Z,99.90
2018-07-20T05:39:04.114Z,99.90
2018-07-20T05:41:37.723Z,99.90
2018-07-20T05:44:12.294Z,99.90
2018-07-20T05:46:46.173Z,99.90
2018-07-20T05:49:20.693Z,99.90
2018-07-20T05:51:54.562Z,99.90
2018-07-20T05:54:28.425Z,99.90
2018-07-20T05:57:03.332Z,99.90
2018-07-20T05:59:37.206Z,99.90
2018-07-20T06:02:11.097Z,99.90
2018-07-20T06:04:44.925Z,99.90
2018-07-20T06:07:18.814Z,99.90
2018-07-20T06:09:52.422Z,99.90
2018-07-20T06:12:27.011Z,99.90
2018-07-20T06:15:00.672Z,99.90
2018-07-20T06:17:34.443Z,99.90
2018-07-20T06:20:09.013Z,99.90
2018-07-20T06:22:43.554Z,99.90
2018-07-20T06:25:17.370Z,99.90
2018-07-20T06:27:50.980Z,99.90
2018-07-20T06:30:24.854Z,99.90
2018-07-20T06:32:59.376Z,98.90
2018-07-20T06:35:33.219Z,98.90
2018-07-20T06:38:07.830Z,99.20
2018-07-20T06:40:41.437Z,99.20
2018-07-20T06:43:15.304Z,98.10
2018-07-20T06:45:49.226Z,97.40
2018-07-20T06:48:22.968Z,95.70
2018-07-20T06:50:56.770Z,97.10
2018-07-20T06:53:30.489Z,97.90
2018-07-20T06:56:04.288Z,98.50
2018-07-20T06:58:38.087Z,99.70
2018-07-20T07:01:11.961Z,99.10
2018-07-20T07:03:45.566Z,98.70
2018-07-20T07:06:19.280Z,98.50
2018-07-20T07:08:53.109Z,99.10
2018-07-20T07:11:26.940Z,99.90
2018-07-20T07:14:00.669Z,99.90
2018-07-20T07:16:35.263Z,99.90
2018-07-20T07:19:09.883Z,99.90
2018-07-20T07:21:43.771Z,99.90
2018-07-20T07:24:17.698Z,99.90
2018-07-20T07:26:51.499Z,99.90
2018-07-20T07:29:25.320Z,99.90
2018-07-20T07:31:59.107Z,99.90
2018-07-20T07:34:32.917Z,99.90
2018-07-20T07:37:07.453Z,99.00
2018-07-20T07:39:41.272Z,98.90
2018-07-20T07:42:15.191Z,98.50
2018-07-20T07:44:48.902Z,99.00
2018-07-20T07:47:23.523Z,96.90
2018-07-20T07:49:57.340Z,96.90
2018-07-20T07:52:31.189Z,95.60
2018-07-20T07:55:05.034Z,94.70
2018-07-20T07:57:38.845Z,94.10
2018-07-20T08:00:12.642Z,91.90
2018-07-20T08:02:46.472Z,91.30
2018-07-20T08:05:20.251Z,87.20
2018-07-20T08:07:54.212Z,88.10
2018-07-20T08:10:27.885Z,84.20
2018-07-20T08:13:02.462Z,81.60
2018-07-20T08:15:36.939Z,78.10
2018-07-20T08:18:10.775Z,78.10
2018-07-20T08:20:44.620Z,76.20
2018-07-20T08:23:18.395Z,69.70
2018-07-20T08:25:52.183Z,64.00
2018-07-20T08:28:26.014Z,57.30
2018-07-20T08:30:59.877Z,52.70
2018-07-20T08:33:33.617Z,50.00
2018-07-20T08:36:07.392Z,47.70
2018-07-20T08:38:41.134Z,45.20
2018-07-20T08:41:14.976Z,44.70
2018-07-20T08:43:48.733Z,44.50
2018-07-20T08:46:23.124Z,42.40
2018-07-20T08:48:56.892Z,42.40
2018-07-20T08:51:30.533Z,41.00
2018-07-20T08:54:04.401Z,40.60
2018-07-20T08:56:38.974Z,38.90
2018-07-20T08:59:12.649Z,38.90
2018-07-20T09:01:46.360Z,37.00
2018-07-20T09:04:20.111Z,34.70
2018-07-20T09:06:53.772Z,34.40
2018-07-20T09:09:27.509Z,34.30
2018-07-20T09:12:02.123Z,36.40
2018-07-20T09:14:36.686Z,35.80
2018-07-20T09:17:10.488Z,35.70
2018-07-20T09:19:44.192Z,35.10
2018-07-20T09:22:18.795Z,35.00
2018-07-20T09:24:52.469Z,35.00
2018-07-20T09:27:26.140Z,35.00
2018-07-20T09:30:00.781Z,33.70
2018-07-20T09:32:34.701Z,33.70
2018-07-20T09:35:08.503Z,34.10
2018-07-20T09:37:42.256Z,34.00
2018-07-20T09:40:15.996Z,34.00
2018-07-20T09:42:50.596Z,33.30
2018-07-20T09:45:24.351Z,33.30
2018-07-20T09:47:58.921Z,32.70
2018-07-20T09:50:32.631Z,32.70
2018-07-20T09:53:06.501Z,33.20
2018-07-20T09:55:40.267Z,33.80
2018-07-20T09:58:14.007Z,34.70
2018-07-20T10:00:48.495Z,35.20
2018-07-20T10:03:22.268Z,35.20
2018-07-20T10:05:56.081Z,35.10
2018-07-20T10:08:30.747Z,34.90
2018-07-20T10:11:05.175Z,35.30
2018-07-20T10:13:38.970Z,35.20
2018-07-20T10:16:12.875Z,35.20
2018-07-20T10:18:46.594Z,35.80
2018-07-20T10:21:20.393Z,36.20
2018-07-20T10:23:54.080Z,36.60
2018-07-20T10:26:27.630Z,37.40
2018-07-20T10:29:01.573Z,37.00
2018-07-20T10:31:35.225Z,36.90
2018-07-20T10:34:09.407Z,36.50
2018-07-20T10:36:43.033Z,36.30
2018-07-20T10:39:17.614Z,35.80
2018-07-20T10:41:51.372Z,35.70
2018-07-20T10:44:25.198Z,34.80
2018-07-20T10:46:59.101Z,34.50
2018-07-20T10:49:32.980Z,34.10
2018-07-20T10:52:06.725Z,33.80
2018-07-20T10:54:40.466Z,33.50
2018-07-20T10:57:14.926Z,33.30
2018-07-20T10:59:48.732Z,33.20
2018-07-20T11:02:23.153Z,32.70
2018-07-20T11:04:57.704Z,32.50
2018-07-20T11:07:31.566Z,32.50
2018-07-20T11:10:05.309Z,33.40
2018-07-20T11:12:39.524Z,33.90
2018-07-20T11:15:14.012Z,33.20
2018-07-20T11:17:48.619Z,32.00
2018-07-20T11:20:22.413Z,32.00
2018-07-20T11:22:56.089Z,32.10
2018-07-20T11:25:29.883Z,31.70
2018-07-20T11:28:03.687Z,31.60
2018-07-20T11:30:37.474Z,32.10
2018-07-20T11:33:11.239Z,32.60
2018-07-20T11:35:45.735Z,31.80
2018-07-20T11:38:19.532Z,31.80
2018-07-20T11:40:53.465Z,32.50
2018-07-20T11:43:27.255Z,32.90
2018-07-20T11:46:01.056Z,33.10
2018-07-20T11:48:34.940Z,33.30
2018-07-20T11:51:08.775Z,34.30
2018-07-20T11:53:42.655Z,34.40
2018-07-20T11:56:16.362Z,34.50
2018-07-20T11:58:50.203Z,35.10
2018-07-20T12:01:23.958Z,35.40
2018-07-20T12:03:57.786Z,35.80
2018-07-20T12:06:31.501Z,35.90
2018-07-20T12:09:05.695Z,36.10
2018-07-20T12:11:40.392Z,35.90
2018-07-20T12:14:14.907Z,36.10
2018-07-20T12:16:49.365Z,36.40
2018-07-20T12:19:23.224Z,36.30
2018-07-20T12:21:57.690Z,36.10
2018-07-20T12:24:31.570Z,36.10
2018-07-20T12:27:05.951Z,35.60
2018-07-20T12:29:40.515Z,35.60
2018-07-20T12:32:15.220Z,36.30
2018-07-20T12:34:48.919Z,36.30
2018-07-20T12:37:22.651Z,36.20
2018-07-20T12:39:57.306Z,35.80
2018-07-20T12:42:31.121Z,35.80
2018-07-20T12:45:04.827Z,35.90
2018-07-20T12:47:38.512Z,35.90
2018-07-20T12:50:12.338Z,36.00
2018-07-20T12:52:46.867Z,36.00
2018-07-20T12:55:20.695Z,35.90
2018-07-20T12:57:55.264Z,36.20
2018-07-20T13:00:29.007Z,36.20
2018-07-20T13:03:03.718Z,36.40
2018-07-20T13:05:38.226Z,36.30
2018-07-20T13:08:12.115Z,36.30
2018-07-20T13:10:45.775Z,36.80
2018-07-20T13:13:19.621Z,36.40
2018-07-20T13:15:54.197Z,36.60
2018-07-20T13:18:27.852Z,36.60
2018-07-20T13:21:01.599Z,36.40
2018-07-20T13:23:35.319Z,36.40
2018-07-20T13:26:09.141Z,35.90
2018-07-20T13:28:43.874Z,36.00
2018-07-20T13:31:17.759Z,36.00
2018-07-20T13:33:51.532Z,35.60
2018-07-20T13:36:25.413Z,35.60
2018-07-20T13:39:00.416Z,35.40
2018-07-20T13:41:34.158Z,35.40
2018-07-20T13:44:08.026Z,35.90
2018-07-20T13:46:41.709Z,35.80
2018-07-20T13:49:15.415Z,36.10
2018-07-20T13:51:49.292Z,36.00
2018-07-20T13:54:22.967Z,36.00
2018-07-20T13:56:56.838Z,36.40
2018-07-20T13:59:30.637Z,36.00
2018-07-20T14:02:04.419Z,35.60
2018-07-20T14:04:38.172Z,35.50
2018-07-20T14:07:12.042Z,35.60
2018-07-20T14:09:45.939Z,35.50
2018-07-20T14:12:19.816Z,35.40
2018-07-20T14:14:54.363Z,34.90
2018-07-20T14:17:28.217Z,34.90
2018-07-20T14:20:01.951Z,34.70
2018-07-20T14:22:35.692Z,34.80
2018-07-20T14:25:09.546Z,34.90
2018-07-20T14:27:43.264Z,35.50
2018-07-20T14:30:17.176Z,35.90
2018-07-20T14:32:52.452Z,35.50
2018-07-20T14:35:27.218Z,35.30
2018-07-20T14:38:01.026Z,35.30
2018-07-20T14:40:34.796Z,35.10
2018-07-20T14:43:08.580Z,35.20
2018-07-20T14:45:42.207Z,35.00
2018-07-20T14:48:15.800Z,34.80
2018-07-20T14:50:49.664Z,34.60
2018-07-20T14:53:23.608Z,34.50
2018-07-20T14:55:57.376Z,34.60
2018-07-20T14:58:31.234Z,34.70
2018-07-20T15:01:05.036Z,34.80
2018-07-20T15:03:38.795Z,34.80
2018-07-20T15:06:13.565Z,34.20
2018-07-20T15:08:47.259Z,34.20
2018-07-20T15:11:21.166Z,34.70
2018-07-20T15:13:55.394Z,35.00
2018-07-20T15:16:29.272Z,34.60
2018-07-20T15:19:03.241Z,35.10
2018-07-20T15:21:37.276Z,34.80
2018-07-20T15:24:11.505Z,35.00
2018-07-20T15:26:46.531Z,34.80
2018-07-20T15:29:20.461Z,34.80
2018-07-20T15:31:54.375Z,35.20
2018-07-20T15:34:28.252Z,35.00
2018-07-20T15:37:02.443Z,35.50
2018-07-20T15:39:36.179Z,35.00
2018-07-20T15:42:09.942Z,35.10
2018-07-20T15:44:44.463Z,35.20
2018-07-20T15:47:18.284Z,35.30
2018-07-20T15:49:52.915Z,35.60
2018-07-20T15:55:00.411Z,39.70
2018-07-20T15:57:34.155Z,43.60
2018-07-20T16:00:08.819Z,45.20
2018-07-20T16:02:42.676Z,46.70
2018-07-20T16:05:17.207Z,48.00
2018-07-20T16:07:51.780Z,49.30
2018-07-20T16:10:25.930Z,49.30
2018-07-20T16:13:00.300Z,52.80
2018-07-20T16:15:34.063Z,52.80
2018-07-20T16:18:07.755Z,55.00
2018-07-20T16:20:41.614Z,73.20
2018-07-20T16:23:15.352Z,95.10
2018-07-20T16:25:49.322Z,99.90
2018-07-20T16:28:23.782Z,99.90
2018-07-20T16:30:58.334Z,99.90
2018-07-20T16:33:32.940Z,99.90
2018-07-20T16:36:06.684Z,99.90
2018-07-20T16:38:40.543Z,99.90
2018-07-20T16:41:14.420Z,99.90
2018-07-20T16:43:48.139Z,99.90
2018-07-20T16:46:21.784Z,99.90
2018-07-20T16:48:55.498Z,99.90
2018-07-20T16:51:29.310Z,99.90
2018-07-20T16:54:03.869Z,99.90
2018-07-20T16:56:37.685Z,99.90
2018-07-20T16:59:11.567Z,99.90
2018-07-20T17:01:45.258Z,99.90
2018-07-20T17:04:18.975Z,99.90
2018-07-20T17:06:53.533Z,99.90
2018-07-20T17:09:27.410Z,99.90
2018-07-20T17:12:01.912Z,99.90
2018-07-20T17:14:36.532Z,99.90
2018-07-20T17:17:10.339Z,99.90
2018-07-20T17:19:44.023Z,99.90
2018-07-20T17:22:17.830Z,99.90
2018-07-20T17:24:52.518Z,99.90
2018-07-20T17:27:26.319Z,99.90
2018-07-20T17:30:00.183Z,99.90
2018-07-20T17:32:34.010Z,99.90
2018-07-20T17:35:07.932Z,99.90
2018-07-20T17:37:41.781Z,99.90
2018-07-20T17:40:15.780Z,99.90
2018-07-20T17:42:49.551Z,99.90
2018-07-20T17:45:23.444Z,99.90
2018-07-20T17:47:57.130Z,99.90
2018-07-20T17:50:30.901Z,99.90
2018-07-20T17:53:05.435Z,99.90
2018-07-20T17:55:39.105Z,99.90
2018-07-20T17:58:12.888Z,99.90
2018-07-20T18:00:47.488Z,99.90
2018-07-20T18:03:21.234Z,99.90
2018-07-20T18:05:55.191Z,99.90
2018-07-20T18:08:28.996Z,99.90
2018-07-20T18:11:02.828Z,99.90
2018-07-20T18:13:36.655Z,99.90
2018-07-20T18:16:10.509Z,99.90
2018-07-20T18:18:44.433Z,99.60
2018-07-20T18:21:18.137Z,97.60
2018-07-20T18:23:52.747Z,96.20
2018-07-20T18:26:26.428Z,96.20
2018-07-20T18:29:00.264Z,95.60
2018-07-20T18:31:34.039Z,95.50
2018-07-20T18:34:07.875Z,95.70
2018-07-20T18:36:41.601Z,96.30
2018-07-20T18:39:15.479Z,96.30
2018-07-20T18:41:49.228Z,96.50
2018-07-20T18:44:22.887Z,96.60
2018-07-20T18:46:56.733Z,96.90
2018-07-20T18:49:30.463Z,97.20
2018-07-20T18:52:04.328Z,97.20
2018-07-20T18:54:38.101Z,96.80
2018-07-20T18:57:11.931Z,96.90
2018-07-20T18:59:45.732Z,96.80
2018-07-20T19:02:19.577Z,97.00
2018-07-20T19:04:53.263Z,96.90
2018-07-20T19:07:27.116Z,96.40
2018-07-20T19:10:00.971Z,97.20
2018-07-20T19:12:34.807Z,98.70
2018-07-20T19:15:08.636Z,99.50
2018-07-20T19:17:42.301Z,99.90
2018-07-20T19:20:16.107Z,99.90
2018-07-20T19:22:50.791Z,99.90
2018-07-20T19:25:24.550Z,99.90
2018-07-20T19:27:58.467Z,99.90
2018-07-20T19:30:32.307Z,99.90
2018-07-20T19:33:06.156Z,99.90
2018-07-20T19:35:39.911Z,99.90
2018-07-20T19:38:13.678Z,99.90
2018-07-20T19:40:47.435Z,99.90
2018-07-20T19:43:21.231Z,99.90
2018-07-20T19:45:55.047Z,99.90
2018-07-20T19:48:28.782Z,99.90
2018-07-20T19:51:02.490Z,99.90
2018-07-20T19:53:36.263Z,99.90
2018-07-20T19:56:10.903Z,99.90
2018-07-20T19:58:45.296Z,99.90
2018-07-20T20:01:19.148Z,99.90
2018-07-20T20:03:52.891Z,99.90
2018-07-20T20:06:27.423Z,99.90
2018-07-20T20:09:01.225Z,99.90
2018-07-20T20:11:35.044Z,99.90
2018-07-20T20:14:09.583Z,99.90
2018-07-20T20:16:44.115Z,99.90
2018-07-20T20:19:17.892Z,99.90
2018-07-20T20:21:51.746Z,99.90
2018-07-20T20:24:25.604Z,99.90
2018-07-20T20:26:59.383Z,99.90
2018-07-20T20:29:33.342Z,99.90
2018-07-20T20:32:07.107Z,99.90
2018-07-20T20:34:40.983Z,99.90
2018-07-20T20:37:14.836Z,99.90
2018-07-20T20:39:48.664Z,99.90
2018-07-20T20:42:22.449Z,99.90
2018-07-20T20:44:56.339Z,99.90
2018-07-20T20:47:30.060Z,99.90
2018-07-20T20:50:05.087Z,99.90
2018-07-20T20:52:39.034Z,99.90
2018-07-20T20:55:12.779Z,99.90
2018-07-20T20:57:47.268Z,99.90
2018-07-20T21:00:21.021Z,99.90
2018-07-20T21:02:54.839Z,99.90
2018-07-20T21:05:28.503Z,99.90
2018-07-20T21:08:03.041Z,99.90
2018-07-20T21:10:36.789Z,99.90
2018-07-20T21:13:11.425Z,99.90
2018-07-20T21:15:45.127Z,99.90
2018-07-20T21:18:19.811Z,99.90
2018-07-20T21:20:53.460Z,99.90
2018-07-20T21:23:27.289Z,99.90
2018-07-20T21:26:01.132Z,99.90
2018-07-20T21:28:34.744Z,99.90
2018-07-20T21:31:08.599Z,99.90
2018-07-20T21:33:42.375Z,99.90
2018-07-20T21:36:16.216Z,99.90
2018-07-20T21:38:49.989Z,99.90
2018-07-20T21:41:23.838Z,99.90
2018-07-20T21:43:58.411Z,99.90
2018-07-20T21:46:32.206Z,99.90
2018-07-20T21:49:06.046Z,99.90
2018-07-20T21:51:39.773Z,99.90
2018-07-20T21:54:13.575Z,99.90
2018-07-20T21:56:47.410Z,99.90
2018-07-20T21:59:21.267Z,99.90
2018-07-20T22:01:55.634Z,99.90
2018-07-20T22:04:29.453Z,99.90
2018-07-20T22:07:03.926Z,99.90
2018-07-20T22:09:37.743Z,99.90
2018-07-20T22:12:12.299Z,99.90
2018-07-20T22:14:46.189Z,99.90
2018-07-20T22:17:19.983Z,99.90
2018-07-20T22:19:53.765Z,99.90
2018-07-20T22:22:28.262Z,99.90
2018-07-20T22:25:02.781Z,99.90
2018-07-20T22:27:36.544Z,99.90
2018-07-20T22:30:11.253Z,99.90
2018-07-20T22:32:44.926Z,99.90
2018-07-20T22:35:18.761Z,99.90
2018-07-20T22:37:53.259Z,99.90
2018-07-20T22:40:27.831Z,99.90
2018-07-20T22:43:01.500Z,99.90
2018-07-20T22:45:35.393Z,99.90
2018-07-20T22:48:09.183Z,99.90
2018-07-20T22:50:43.617Z,99.90
2018-07-20T22:53:17.410Z,99.90
2018-07-20T22:55:52.064Z,99.90
2018-07-20T22:58:25.853Z,99.90
2018-07-20T23:00:59.571Z,99.90
2018-07-20T23:03:33.327Z,99.90
2018-07-20T23:06:07.237Z,99.90
2018-07-20T23:08:41.060Z,99.90
2018-07-20T23:11:15.615Z,99.90
2018-07-20T23:13:50.208Z,99.90
2018-07-20T23:16:24.847Z,99.90
2018-07-20T23:18:58.811Z,99.90
2018-07-20T23:21:32.626Z,99.90
2018-07-20T23:24:07.169Z,99.90
2018-07-20T23:26:41.092Z,99.90
2018-07-20T23:29:15.717Z,99.90
2018-07-20T23:31:49.522Z,99.90
2018-07-20T23:34:23.364Z,99.90
2018-07-20T23:36:57.858Z,99.90
2018-07-20T23:39:32.856Z,99.90
2018-07-20T23:42:06.552Z,99.90
2018-07-20T23:44:40.440Z,99.90
2018-07-20T23:47:15.072Z,99.90
2018-07-20T23:49:48.744Z,99.90
2018-07-20T23:52:23.398Z,99.90
2018-07-20T23:54:58.775Z,99.90
2018-07-20T23:57:32.468Z,99.90
